Time;durP1;ratioP1;P1;durP2;ratioP2;P2;SDS_P1;SDS_P2;PMS_P1;PMS_P2;Temp;Humidity;BMP_temperature;BMP_pressure;BME280_temperature;BME280_humidity;BME280_pressure;Samples;Min_cycle;Max_cycle;Signal;HPM_P1;HPM_P2
2023/09/15 00:00:14;;;;;;;8.07;3.72;;;19.50;98.70;;;;;;4247884;27;20043;-54
2023/09/15 00:02:16;;;;;;;14.27;3.50;;;19.60;99.10;;;;;;4247979;27;20047;-53
2023/09/15 00:04:18;;;;;;;5.25;3.10;;;19.50;98.80;;;;;;4248018;27;20453;-54
2023/09/15 00:06:20;;;;;;;4.60;3.10;;;19.50;98.70;;;;;;4247711;27;20043;-53
2023/09/15 00:08:24;;;;;;;6.90;3.17;;;19.50;98.80;;;;;;4247892;27;20108;-53
2023/09/15 00:10:26;;;;;;;8.35;3.65;;;19.40;98.80;;;;;;4247760;27;20053;-56
2023/09/15 00:12:29;;;;;;;5.38;3.22;;;19.40;98.90;;;;;;4247742;27;20043;-53
2023/09/15 00:14:31;;;;;;;4.65;2.90;;;19.40;99.00;;;;;;4247870;27;20047;-56
2023/09/15 00:16:33;;;;;;;8.50;3.33;;;19.40;99.10;;;;;;4247560;27;20523;-55
2023/09/15 00:18:35;;;;;;;10.38;3.63;;;19.40;98.90;;;;;;4247903;27;20047;-55
2023/09/15 00:20:38;;;;;;;5.03;3.22;;;19.40;98.80;;;;;;4247492;27;20050;-55
2023/09/15 00:22:41;;;;;;;8.07;3.65;;;19.30;98.70;;;;;;4247539;27;20084;-55
2023/09/15 00:24:44;;;;;;;5.80;3.67;;;19.30;98.70;;;;;;4247518;27;20071;-56
2023/09/15 00:26:48;;;;;;;6.70;3.97;;;19.40;98.80;;;;;;4247747;27;20047;-55
2023/09/15 00:28:50;;;;;;;8.65;3.40;;;19.30;98.60;;;;;;4247743;27;20100;-55
2023/09/15 00:30:52;;;;;;;8.65;3.45;;;19.30;98.70;;;;;;4247683;27;20047;-55
2023/09/15 00:32:55;;;;;;;7.45;3.22;;;19.30;98.80;;;;;;4247468;27;20047;-54
2023/09/15 00:34:57;;;;;;;8.70;3.33;;;19.30;99.00;;;;;;4247558;27;20245;-55
2023/09/15 00:36:59;;;;;;;7.15;3.20;;;19.30;99.10;;;;;;4247404;27;20047;-55
2023/09/15 00:39:01;;;;;;;4.95;2.97;;;19.30;98.90;;;;;;4247290;27;20047;-55
2023/09/15 00:41:05;;;;;;;4.05;3.28;;;19.20;99.00;;;;;;4247278;27;20100;-54
2023/09/15 00:43:07;;;;;;;5.05;3.28;;;19.30;99.10;;;;;;4247243;27;20051;-55
2023/09/15 00:45:14;;;;;;;5.30;3.08;;;19.20;99.10;;;;;;4247207;27;20096;-55
2023/09/15 00:47:16;;;;;;;8.38;3.30;;;19.20;99.20;;;;;;4247208;27;20100;-55
2023/09/15 00:49:18;;;;;;;4.90;3.30;;;19.20;99.00;;;;;;4247182;27;20108;-54
2023/09/15 00:51:21;;;;;;;6.25;3.25;;;19.20;99.10;;;;;;4247255;27;20047;-55
2023/09/15 00:53:24;;;;;;;7.13;3.90;;;19.20;99.10;;;;;;4247326;28;20043;-55
2023/09/15 00:55:27;;;;;;;8.13;3.50;;;19.20;99.10;;;;;;4247517;28;20047;-55
2023/09/15 00:57:30;;;;;;;10.95;4.03;;;19.20;99.10;;;;;;4247545;28;20062;-54
2023/09/15 00:59:33;;;;;;;9.90;3.38;;;19.10;98.80;;;;;;4247539;28;20043;-55
2023/09/15 01:01:36;;;;;;;5.20;3.28;;;19.10;98.80;;;;;;4247693;28;20043;-55
2023/09/15 01:03:41;;;;;;;5.28;3.47;;;19.00;98.90;;;;;;4247749;28;20075;-54
2023/09/15 01:05:45;;;;;;;7.68;3.80;;;19.00;99.00;;;;;;4246993;28;20116;-55
2023/09/15 01:07:52;;;;;;;8.05;3.50;;;19.00;99.00;;;;;;4247545;28;20502;-55
2023/09/15 01:09:54;;;;;;;4.18;3.20;;;19.00;98.90;;;;;;4228895;28;20057;-54
2023/09/15 01:11:57;;;;;;;6.30;3.45;;;19.00;99.00;;;;;;4247208;28;20039;-55
2023/09/15 01:14:00;;;;;;;5.90;3.35;;;19.00;98.70;;;;;;4247339;28;20134;-55
2023/09/15 01:16:08;;;;;;;7.63;3.53;;;19.00;98.70;;;;;;4247323;28;20088;-55
2023/09/15 01:18:18;;;;;;;9.98;3.53;;;19.00;98.50;;;;;;4247481;28;20096;-56
2023/09/15 01:20:39;;;;;;;4.93;3.28;;;19.00;98.30;;;;;;4247321;28;20046;-55
2023/09/15 01:23:21;;;;;;;7.28;3.00;;;18.90;98.50;;;;;;4247577;28;20050;-53
2023/09/15 01:26:11;;;;;;;7.00;3.70;;;18.90;98.70;;;;;;4247315;28;20047;-54
2023/09/15 01:28:27;;;;;;;5.40;3.38;;;18.90;98.50;;;;;;4129088;28;20121;-55
2023/09/15 01:30:32;;;;;;;7.57;3.50;;;18.80;98.70;;;;;;4129330;28;20489;-55
2023/09/15 01:32:35;;;;;;;5.22;3.08;;;18.80;98.80;;;;;;4129252;28;20062;-53
2023/09/15 01:34:38;;;;;;;6.20;3.38;;;18.70;98.60;;;;;;4128859;28;20085;-54
2023/09/15 01:36:40;;;;;;;7.20;3.67;;;18.80;98.70;;;;;;4129159;28;20105;-54
2023/09/15 01:38:47;;;;;;;6.90;3.67;;;18.80;98.60;;;;;;4129298;28;20104;-55
2023/09/15 01:40:54;;;;;;;9.10;3.15;;;18.70;98.70;;;;;;4129233;28;20125;-54
2023/09/15 01:42:56;;;;;;;5.55;3.58;;;18.70;98.70;;;;;;4129016;28;20077;-55
2023/09/15 01:44:58;;;;;;;5.60;3.30;;;18.70;98.70;;;;;;4128900;28;20068;-55
2023/09/15 01:47:02;;;;;;;4.13;3.42;;;18.60;99.00;;;;;;4128959;28;20146;-54
2023/09/15 01:49:05;;;;;;;7.45;3.28;;;18.60;98.90;;;;;;4128339;28;20054;-55
2023/09/15 01:51:12;;;;;;;5.72;3.42;;;18.60;99.20;;;;;;4128980;28;20121;-55
2023/09/15 01:53:14;;;;;;;7.68;3.28;;;18.60;99.20;;;;;;4129493;28;20046;-61
2023/09/15 01:55:18;;;;;;;5.63;3.40;;;18.50;99.40;;;;;;4129650;28;20068;-55
2023/09/15 01:57:20;;;;;;;6.32;3.38;;;18.60;99.70;;;;;;4129038;28;20178;-54
2023/09/15 01:59:22;;;;;;;4.75;3.50;;;18.60;99.40;;;;;;4130522;28;20148;-54
2023/09/15 02:01:24;;;;;;;7.13;3.47;;;18.60;99.50;;;;;;4131752;28;20058;-54
2023/09/15 02:03:28;;;;;;;6.35;3.17;;;18.60;99.20;;;;;;4149952;28;20052;-55
2023/09/15 02:05:31;;;;;;;7.07;3.30;;;18.60;99.30;;;;;;4224554;27;20043;-54
2023/09/15 02:07:33;;;;;;;6.50;3.47;;;18.70;99.50;;;;;;4231811;28;20072;-54
2023/09/15 02:09:35;;;;;;;7.82;3.28;;;18.60;99.20;;;;;;4249671;27;20035;-53
2023/09/15 02:11:37;;;;;;;6.30;3.72;;;18.70;99.20;;;;;;4249586;27;20062;-54
2023/09/15 02:13:40;;;;;;;5.55;3.10;;;18.70;98.90;;;;;;4250090;27;20130;-58
2023/09/15 02:15:42;;;;;;;4.15;3.33;;;18.60;98.80;;;;;;4250164;27;20047;-54
2023/09/15 02:17:44;;;;;;;4.95;3.75;;;18.70;98.90;;;;;;4249442;27;20489;-55
2023/09/15 02:19:48;;;;;;;7.05;3.78;;;18.60;98.90;;;;;;4249788;27;20131;-53
2023/09/15 02:21:50;;;;;;;7.45;3.80;;;18.60;98.90;;;;;;4249380;27;20043;-55
2023/09/15 02:23:52;;;;;;;5.68;3.65;;;18.50;99.10;;;;;;4249448;27;20047;-53
2023/09/15 02:25:54;;;;;;;4.30;3.30;;;18.50;99.10;;;;;;4249860;27;20043;-54
2023/09/15 02:27:56;;;;;;;7.95;3.78;;;18.50;99.10;;;;;;4249576;27;20073;-55
2023/09/15 02:29:58;;;;;;;6.28;3.35;;;18.50;99.10;;;;;;4249557;27;20055;-59
2023/09/15 02:32:00;;;;;;;6.22;3.22;;;18.50;99.30;;;;;;4249038;27;20130;-54
2023/09/15 02:34:03;;;;;;;4.20;3.08;;;18.50;99.00;;;;;;4248689;27;20400;-53
2023/09/15 02:36:06;;;;;;;4.75;3.58;;;18.40;99.10;;;;;;4249675;27;20515;-54
2023/09/15 02:38:08;;;;;;;6.40;3.80;;;18.40;99.40;;;;;;4249169;27;20408;-55
2023/09/15 02:40:13;;;;;;;6.07;3.72;;;18.40;99.30;;;;;;4249577;27;20047;-53
2023/09/15 02:42:16;;;;;;;6.32;3.90;;;18.40;99.40;;;;;;4249453;27;20405;-58
2023/09/15 02:44:18;;;;;;;5.43;3.13;;;18.40;99.40;;;;;;4249482;27;20051;-55
2023/09/15 02:46:20;;;;;;;4.78;3.53;;;18.30;99.30;;;;;;4249063;27;20495;-54
2023/09/15 02:48:22;;;;;;;4.32;3.40;;;18.20;99.50;;;;;;4249801;27;20055;-55
2023/09/15 02:50:25;;;;;;;5.53;3.80;;;18.20;99.60;;;;;;4250935;27;20427;-55
2023/09/15 02:52:28;;;;;;;4.68;3.22;;;18.20;99.70;;;;;;4249992;27;20055;-54
2023/09/15 02:54:30;;;;;;;6.25;3.92;;;18.30;99.80;;;;;;4248904;27;20039;-54
2023/09/15 02:56:32;;;;;;;5.10;3.50;;;18.30;99.60;;;;;;4249333;27;20491;-53
2023/09/15 02:58:35;;;;;;;6.70;3.63;;;18.20;99.50;;;;;;4249057;27;20043;-55
2023/09/15 03:00:37;;;;;;;4.22;3.08;;;18.20;99.90;;;;;;4248506;27;20137;-55
2023/09/15 03:02:39;;;;;;;8.48;3.90;;;18.20;99.80;;;;;;4248812;27;20066;-54
2023/09/15 03:04:45;;;;;;;8.20;4.20;;;18.20;99.70;;;;;;4249129;27;20043;-54
2023/09/15 03:06:47;;;;;;;7.07;4.20;;;18.30;99.50;;;;;;4248996;27;20054;-59
2023/09/15 03:08:50;;;;;;;6.80;3.90;;;18.30;99.50;;;;;;4248834;27;20051;-54
2023/09/15 03:10:53;;;;;;;7.38;3.42;;;18.30;99.50;;;;;;4248693;27;20100;-54
2023/09/15 03:12:55;;;;;;;6.57;3.17;;;18.20;99.70;;;;;;4248669;27;20488;-54
2023/09/15 03:14:58;;;;;;;7.82;4.25;;;18.20;99.90;;;;;;4248489;27;20043;-54
2023/09/15 03:17:00;;;;;;;4.53;3.60;;;18.20;99.70;;;;;;4248734;27;20054;-53
2023/09/15 03:19:03;;;;;;;5.55;3.78;;;18.20;99.80;;;;;;4248756;27;20050;-54
2023/09/15 03:21:06;;;;;;;6.55;3.95;;;18.10;99.80;;;;;;4248574;27;20046;-55
2023/09/15 03:23:08;;;;;;;7.85;3.80;;;18.10;99.70;;;;;;4248711;27;20392;-57
2023/09/15 03:25:11;;;;;;;7.40;3.70;;;18.10;99.80;;;;;;4248583;27;20330;-55
2023/09/15 03:27:13;;;;;;;5.93;3.65;;;18.10;99.90;;;;;;4248512;27;20042;-54
2023/09/15 03:29:15;;;;;;;6.20;3.38;;;18.20;99.90;;;;;;4230050;28;20092;-53
2023/09/15 03:31:18;;;;;;;5.97;3.58;;;18.20;99.90;;;;;;4230326;28;20082;-54
2023/09/15 03:33:20;;;;;;;7.15;3.33;;;18.20;99.90;;;;;;4248260;27;20050;-54
2023/09/15 03:35:22;;;;;;;7.22;3.90;;;18.20;99.90;;;;;;4248475;27;20508;-55
2023/09/15 03:37:25;;;;;;;6.60;3.55;;;18.20;99.90;;;;;;4248635;27;20071;-55
2023/09/15 03:39:28;;;;;;;7.75;3.60;;;18.20;99.70;;;;;;4248788;27;20069;-54
2023/09/15 03:41:31;;;;;;;6.03;3.47;;;18.10;99.90;;;;;;4248223;27;20126;-53
2023/09/15 03:43:33;;;;;;;6.25;4.38;;;18.10;99.90;;;;;;4248250;27;20043;-53
2023/09/15 03:45:35;;;;;;;6.28;4.03;;;18.10;99.90;;;;;;4247919;27;20047;-55
2023/09/15 03:47:37;;;;;;;9.18;3.92;;;18.10;99.80;;;;;;4248364;27;20450;-54
2023/09/15 03:49:39;;;;;;;5.13;3.67;;;18.10;99.70;;;;;;4247770;27;20051;-54
2023/09/15 03:51:41;;;;;;;6.90;3.67;;;18.00;99.90;;;;;;4247943;27;20412;-54
2023/09/15 03:53:43;;;;;;;6.60;4.30;;;18.10;99.90;;;;;;4247880;27;20070;-53
2023/09/15 03:55:47;;;;;;;7.35;4.20;;;18.00;99.90;;;;;;4247843;27;20054;-57
2023/09/15 03:57:51;;;;;;;7.53;3.60;;;18.00;99.90;;;;;;4248121;27;20055;-54
2023/09/15 03:59:53;;;;;;;7.28;4.00;;;18.00;99.90;;;;;;4247805;27;20046;-58
2023/09/15 04:01:55;;;;;;;7.00;3.90;;;17.90;99.90;;;;;;4248333;27;20043;-54
2023/09/15 04:03:59;;;;;;;6.32;4.13;;;17.90;99.90;;;;;;4247727;27;20046;-54
2023/09/15 04:06:03;;;;;;;6.95;3.83;;;17.90;99.90;;;;;;4247977;27;20050;-54
2023/09/15 04:08:05;;;;;;;5.22;3.35;;;17.90;99.90;;;;;;4248389;27;20047;-56
2023/09/15 04:10:08;;;;;;;9.60;4.00;;;17.90;99.90;;;;;;4248253;27;20071;-57
2023/09/15 04:12:10;;;;;;;5.75;3.47;;;17.90;99.90;;;;;;4247836;27;20051;-54
2023/09/15 04:14:13;;;;;;;6.13;3.53;;;17.90;99.90;;;;;;4247570;27;20082;-53
2023/09/15 04:16:15;;;;;;;4.72;3.60;;;18.00;99.90;;;;;;4247830;27;20047;-54
2023/09/15 04:18:18;;;;;;;7.95;3.97;;;18.00;99.90;;;;;;4248002;27;20381;-53
2023/09/15 04:20:20;;;;;;;6.13;4.00;;;18.00;99.90;;;;;;4247589;27;20043;-54
2023/09/15 04:22:36;;;;;;;3.65;3.30;;;18.10;99.90;;;;;;4247170;27;20047;-53
2023/09/15 04:24:38;;;;;;;7.85;3.70;;;18.00;99.90;;;;;;4247880;27;20489;-54
2023/09/15 04:26:40;;;;;;;6.22;4.22;;;18.00;99.90;;;;;;4247626;27;20125;-54
2023/09/15 04:28:42;;;;;;;8.60;4.15;;;17.90;99.90;;;;;;4247365;27;20039;-54
2023/09/15 04:30:46;;;;;;;7.03;3.95;;;17.90;99.90;;;;;;4247811;27;20403;-54
2023/09/15 04:32:48;;;;;;;6.57;4.32;;;18.00;99.90;;;;;;4248143;27;20077;-54
2023/09/15 04:34:51;;;;;;;8.10;3.70;;;18.00;99.90;;;;;;4248483;27;20114;-55
2023/09/15 04:36:53;;;;;;;6.75;4.20;;;18.00;99.90;;;;;;4248749;27;20078;-54
2023/09/15 04:38:56;;;;;;;7.45;3.88;;;18.00;99.90;;;;;;4247482;27;20043;-59
2023/09/15 04:40:58;;;;;;;11.00;4.03;;;18.00;99.90;;;;;;4248101;27;20067;-54
2023/09/15 04:43:00;;;;;;;6.57;4.05;;;18.00;99.90;;;;;;4247192;27;20476;-54
2023/09/15 04:45:03;;;;;;;7.35;3.55;;;18.00;99.90;;;;;;4247556;27;20112;-55
2023/09/15 04:47:07;;;;;;;8.82;3.92;;;18.00;99.90;;;;;;4247675;27;20074;-54
2023/09/15 04:49:09;;;;;;;7.97;3.97;;;18.00;99.90;;;;;;4229219;28;20082;-54
2023/09/15 04:51:11;;;;;;;7.63;4.28;;;18.00;99.90;;;;;;4247321;27;20043;-54
2023/09/15 04:53:15;;;;;;;9.93;4.38;;;18.00;99.90;;;;;;4247313;28;20049;-54
2023/09/15 04:55:17;;;;;;;6.43;4.30;;;18.10;99.90;;;;;;4229575;28;20047;-54
2023/09/15 04:57:19;;;;;;;13.15;4.65;;;18.00;99.90;;;;;;4247237;28;20047;-54
2023/09/15 04:59:22;;;;;;;10.95;4.72;;;18.10;99.90;;;;;;4247603;28;20043;-54
2023/09/15 05:01:24;;;;;;;14.88;4.43;;;18.10;99.90;;;;;;4247310;28;20096;-54
2023/09/15 05:03:28;;;;;;;10.55;4.22;;;18.10;99.90;;;;;;4247833;28;20047;-54
2023/09/15 05:05:30;;;;;;;9.20;4.10;;;18.00;99.90;;;;;;4247187;28;20043;-53
2023/09/15 05:07:32;;;;;;;10.73;4.07;;;18.10;99.90;;;;;;4247637;28;20043;-53
2023/09/15 05:09:34;;;;;;;7.35;4.60;;;18.10;99.90;;;;;;4247363;28;20077;-56
2023/09/15 05:11:37;;;;;;;11.50;4.60;;;18.00;99.90;;;;;;4247552;28;20094;-54
2023/09/15 05:13:39;;;;;;;9.35;4.28;;;18.00;99.90;;;;;;4229423;28;20071;-55
2023/09/15 05:15:41;;;;;;;10.25;4.13;;;18.00;99.90;;;;;;4247521;28;20047;-53
2023/09/15 05:17:44;;;;;;;9.00;3.92;;;18.00;99.90;;;;;;4247416;28;20104;-54
2023/09/15 05:19:49;;;;;;;5.65;4.25;;;17.90;99.90;;;;;;4247615;28;20453;-54
2023/09/15 05:21:51;;;;;;;8.30;4.18;;;17.90;99.90;;;;;;4247338;28;20442;-54
2023/09/15 05:23:53;;;;;;;11.13;4.10;;;17.90;99.90;;;;;;4247573;28;20097;-54
2023/09/15 05:25:55;;;;;;;7.85;4.07;;;17.90;99.90;;;;;;4247678;28;20373;-57
2023/09/15 05:27:57;;;;;;;6.78;5.10;;;18.00;99.90;;;;;;4248250;28;20396;-54
2023/09/15 05:30:00;;;;;;;10.68;4.53;;;18.00;99.90;;;;;;4247164;28;20061;-54
2023/09/15 05:32:02;;;;;;;10.18;4.22;;;17.90;99.90;;;;;;4247154;28;20448;-54
2023/09/15 05:34:04;;;;;;;9.52;4.82;;;17.90;99.90;;;;;;4248554;27;20096;-55
2023/09/15 05:36:08;;;;;;;8.70;4.00;;;18.00;99.90;;;;;;4250281;27;20055;-54
2023/09/15 05:38:10;;;;;;;8.70;4.32;;;18.00;99.90;;;;;;4232692;28;20048;-55
2023/09/15 05:40:12;;;;;;;14.20;4.32;;;18.00;99.90;;;;;;4251317;27;20123;-56
2023/09/15 05:42:14;;;;;;;10.52;4.38;;;18.10;99.90;;;;;;4252463;27;20489;-54
2023/09/15 05:44:16;;;;;;;13.55;4.72;;;18.10;99.90;;;;;;4251627;27;20120;-57
2023/09/15 05:46:18;;;;;;;11.38;5.18;;;18.10;99.90;;;;;;4250576;27;20070;-59
2023/09/15 05:48:23;;;;;;;11.07;4.93;;;18.10;99.90;;;;;;4250354;27;20047;-55
2023/09/15 05:50:25;;;;;;;47.67;7.55;;;18.10;99.90;;;;;;4250221;27;20051;-54
2023/09/15 05:52:29;;;;;;;37.60;6.53;;;18.10;99.90;;;;;;4250102;27;20043;-53
2023/09/15 05:54:31;;;;;;;37.70;7.15;;;18.10;99.90;;;;;;4249477;27;20432;-56
2023/09/15 05:56:33;;;;;;;60.30;7.53;;;18.10;99.90;;;;;;4250175;27;20043;-54
2023/09/15 05:58:35;;;;;;;20.98;6.55;;;18.00;99.90;;;;;;4250199;27;20047;-54
2023/09/15 06:00:37;;;;;;;15.75;4.97;;;18.10;99.90;;;;;;4250234;27;20439;-53
2023/09/15 06:02:42;;;;;;;20.88;5.47;;;18.20;99.90;;;;;;4249805;27;20051;-54
2023/09/15 06:04:46;;;;;;;12.15;4.80;;;18.20;99.90;;;;;;4249957;27;20043;-54
2023/09/15 06:06:48;;;;;;;17.40;5.50;;;18.20;99.90;;;;;;4250100;27;20066;-55
2023/09/15 06:08:52;;;;;;;24.38;7.35;;;18.20;99.90;;;;;;4249384;27;20047;-54
2023/09/15 06:10:54;;;;;;;36.65;6.82;;;18.20;99.90;;;;;;4249766;27;20481;-54
2023/09/15 06:12:56;;;;;;;13.13;6.13;;;18.20;99.90;;;;;;4249979;27;20100;-53
2023/09/15 06:14:58;;;;;;;19.02;5.72;;;18.40;99.90;;;;;;4249706;27;20051;-55
2023/09/15 06:17:01;;;;;;;15.25;6.00;;;18.40;99.80;;;;;;4249470;27;20081;-54
2023/09/15 06:19:03;;;;;;;14.52;6.00;;;18.30;99.80;;;;;;4249678;27;20039;-54
2023/09/15 06:21:05;;;;;;;15.23;5.25;;;18.40;99.80;;;;;;4249713;27;20043;-53
2023/09/15 06:23:08;;;;;;;13.88;4.72;;;18.40;99.90;;;;;;4249406;27;20116;-54
2023/09/15 06:25:11;;;;;;;24.70;6.15;;;18.50;99.90;;;;;;4249646;27;20407;-54
2023/09/15 06:27:13;;;;;;;29.85;7.03;;;18.40;99.80;;;;;;4249595;27;20439;-53
2023/09/15 06:29:15;;;;;;;25.02;6.32;;;18.50;99.80;;;;;;4249702;27;20514;-53
2023/09/15 06:31:19;;;;;;;23.50;7.47;;;18.50;99.70;;;;;;4249604;27;20412;-54
2023/09/15 06:33:21;;;;;;;24.50;7.57;;;18.50;99.80;;;;;;4249304;27;20411;-54
2023/09/15 06:35:23;;;;;;;13.93;5.82;;;18.60;99.70;;;;;;4249492;27;20122;-54
2023/09/15 06:37:25;;;;;;;11.30;4.38;;;18.50;99.70;;;;;;4249010;27;20043;-52
2023/09/15 06:39:28;;;;;;;14.27;5.10;;;18.60;99.90;;;;;;4249348;27;20043;-54
2023/09/15 06:41:36;;;;;;;8.95;4.72;;;18.70;99.90;;;;;;4249345;27;20545;-54
2023/09/15 06:43:38;;;;;;;12.70;5.50;;;18.70;99.90;;;;;;4249180;27;20043;-56
2023/09/15 06:45:41;;;;;;;19.05;6.13;;;18.70;99.80;;;;;;4248893;27;20043;-55
2023/09/15 06:47:43;;;;;;;22.98;6.03;;;18.70;99.60;;;;;;4249262;27;20438;-54
2023/09/15 06:49:46;;;;;;;21.98;6.15;;;18.70;99.50;;;;;;4248968;27;20519;-55
2023/09/15 06:51:49;;;;;;;20.75;6.75;;;18.70;99.70;;;;;;4249237;27;20078;-54
2023/09/15 06:53:52;;;;;;;22.42;6.20;;;18.70;99.60;;;;;;4248817;27;20051;-54
2023/09/15 06:55:55;;;;;;;22.90;7.25;;;18.70;99.60;;;;;;4250201;27;20115;-54
2023/09/15 06:57:59;;;;;;;16.95;6.93;;;18.70;99.50;;;;;;4250446;27;20392;-54
2023/09/15 07:00:03;;;;;;;20.38;6.82;;;18.80;99.60;;;;;;4249264;27;20071;-53
2023/09/15 07:02:06;;;;;;;31.92;6.97;;;18.80;99.50;;;;;;4249288;27;20477;-54
2023/09/15 07:04:08;;;;;;;18.38;6.07;;;18.60;99.50;;;;;;4249109;27;20051;-58
2023/09/15 07:06:13;;;;;;;16.50;5.03;;;18.70;99.60;;;;;;4230761;28;20051;-53
2023/09/15 07:08:15;;;;;;;10.35;5.50;;;18.70;99.80;;;;;;4230659;28;20517;-54
2023/09/15 07:10:18;;;;;;;12.85;5.57;;;18.80;99.70;;;;;;4248725;27;20130;-54
2023/09/15 07:12:20;;;;;;;13.52;5.70;;;18.90;99.80;;;;;;4248541;27;20126;-54
2023/09/15 07:14:24;;;;;;;11.90;5.50;;;18.80;99.70;;;;;;4248965;27;20072;-54
2023/09/15 07:16:26;;;;;;;7.28;4.63;;;18.90;99.90;;;;;;4248959;27;20568;-54
2023/09/15 07:18:28;;;;;;;10.40;5.00;;;19.00;99.90;;;;;;4248767;27;20542;-53
2023/09/15 07:20:30;;;;;;;14.65;6.28;;;19.00;99.50;;;;;;4248374;27;20039;-55
2023/09/15 07:22:32;;;;;;;13.40;5.15;;;19.10;99.50;;;;;;4248353;27;20047;-54
2023/09/15 07:24:35;;;;;;;13.30;5.35;;;19.00;99.50;;;;;;4248430;27;20053;-53
2023/09/15 07:26:37;;;;;;;18.00;6.40;;;19.00;99.60;;;;;;4248522;27;20096;-53
2023/09/15 07:28:39;;;;;;;67.18;9.55;;;19.10;99.40;;;;;;4248513;27;20050;-59
2023/09/15 07:30:43;;;;;;;45.17;8.70;;;19.10;99.40;;;;;;4248340;27;20510;-52
2023/09/15 07:32:46;;;;;;;41.97;9.68;;;19.10;99.20;;;;;;4248538;27;20480;-55
2023/09/15 07:34:48;;;;;;;24.40;7.70;;;19.20;99.10;;;;;;4248416;27;20092;-54
2023/09/15 07:36:51;;;;;;;33.55;6.95;;;19.20;99.10;;;;;;4247941;27;20049;-54
2023/09/15 07:38:53;;;;;;;30.67;7.90;;;19.30;99.10;;;;;;4230043;28;20048;-58
2023/09/15 07:40:55;;;;;;;26.25;8.07;;;19.30;98.90;;;;;;4248302;27;20514;-55
2023/09/15 07:42:57;;;;;;;32.92;8.25;;;19.40;98.80;;;;;;4248204;27;20481;-54
2023/09/15 07:45:00;;;;;;;22.98;6.90;;;19.60;98.70;;;;;;4248363;27;20039;-53
2023/09/15 07:47:06;;;;;;;33.38;8.68;;;19.50;98.40;;;;;;4230123;28;20059;-54
2023/09/15 07:49:08;;;;;;;22.52;7.43;;;19.70;98.50;;;;;;4247853;27;20051;-54
2023/09/15 07:51:11;;;;;;;34.15;7.70;;;19.80;98.40;;;;;;4247793;27;20043;-55
2023/09/15 07:53:14;;;;;;;16.70;7.38;;;19.90;98.30;;;;;;4248236;27;20043;-55
2023/09/15 07:55:16;;;;;;;22.55;6.57;;;19.90;97.90;;;;;;4248023;27;20043;-53
2023/09/15 07:57:18;;;;;;;17.25;6.25;;;20.00;98.00;;;;;;4247065;27;20046;-54
2023/09/15 07:59:20;;;;;;;23.67;6.30;;;20.00;97.90;;;;;;4248131;27;20051;-55
2023/09/15 08:01:22;;;;;;;12.80;5.38;;;20.10;97.90;;;;;;4247867;27;20050;-54
2023/09/15 08:03:26;;;;;;;10.38;6.07;;;20.20;98.10;;;;;;4247972;27;20039;-54
2023/09/15 08:05:29;;;;;;;26.08;6.57;;;20.20;97.90;;;;;;4247409;27;20069;-54
2023/09/15 08:07:31;;;;;;;14.00;5.55;;;20.40;98.00;;;;;;4247516;27;20059;-55
2023/09/15 08:09:33;;;;;;;11.00;5.97;;;20.50;97.60;;;;;;4247700;27;20046;-53
2023/09/15 08:11:38;;;;;;;14.02;6.13;;;20.70;97.30;;;;;;4247637;27;20408;-54
2023/09/15 08:13:40;;;;;;;18.73;6.15;;;20.80;97.30;;;;;;4247878;27;20074;-54
2023/09/15 08:15:42;;;;;;;12.38;5.70;;;20.90;96.90;;;;;;4247620;27;20130;-53
2023/09/15 08:17:44;;;;;;;15.18;4.95;;;20.90;96.90;;;;;;4229262;28;20488;-54
2023/09/15 08:19:48;;;;;;;10.18;4.63;;;21.00;97.00;;;;;;4230464;28;20067;-54
2023/09/15 08:21:50;;;;;;;9.45;4.20;;;21.00;96.70;;;;;;4230609;28;20051;-54
2023/09/15 08:23:52;;;;;;;10.48;4.70;;;21.10;96.90;;;;;;4230455;28;20054;-53
2023/09/15 08:25:57;;;;;;;11.15;4.18;;;21.10;96.30;;;;;;4230604;28;20043;-53
2023/09/15 08:28:02;;;;;;;11.38;4.35;;;21.20;96.40;;;;;;4230774;28;20158;-59
2023/09/15 08:30:08;;;;;;;6.38;4.43;;;21.20;96.40;;;;;;4230699;28;20454;-60
2023/09/15 08:32:10;;;;;;;9.50;4.85;;;21.30;96.50;;;;;;4230389;28;20071;-56
2023/09/15 08:34:12;;;;;;;11.55;5.00;;;21.30;96.50;;;;;;4230268;28;20105;-55
2023/09/15 08:36:16;;;;;;;9.10;4.75;;;21.30;96.40;;;;;;4230431;28;20100;-58
2023/09/15 08:38:18;;;;;;;7.32;3.92;;;21.40;96.30;;;;;;4212533;28;20151;-54
2023/09/15 08:40:21;;;;;;;11.85;4.72;;;21.50;96.40;;;;;;4230822;28;20384;-57
2023/09/15 08:42:26;;;;;;;9.13;4.72;;;21.50;96.10;;;;;;4230772;28;20051;-56
2023/09/15 08:44:32;;;;;;;17.00;5.45;;;21.50;96.20;;;;;;4230612;28;20051;-57
2023/09/15 08:46:37;;;;;;;10.98;5.60;;;21.60;96.10;;;;;;4230148;28;20362;-54
2023/09/15 08:48:40;;;;;;;15.32;5.78;;;21.50;95.50;;;;;;4229689;28;20051;-55
2023/09/15 08:50:44;;;;;;;28.93;16.70;;;21.60;95.90;;;;;;4230434;28;20063;-54
2023/09/15 08:52:49;;;;;;;35.72;13.05;;;21.60;95.70;;;;;;4230210;28;20055;-54
2023/09/15 08:54:52;;;;;;;23.98;8.60;;;21.70;95.60;;;;;;4230093;28;20048;-54
2023/09/15 08:56:55;;;;;;;21.00;8.73;;;21.60;95.30;;;;;;4230133;28;20043;-55
2023/09/15 08:58:57;;;;;;;14.82;5.25;;;21.70;95.50;;;;;;4212117;28;20043;-55
2023/09/15 09:01:01;;;;;;;9.38;4.40;;;21.70;95.30;;;;;;4230068;28;20044;-54
2023/09/15 09:03:04;;;;;;;8.02;4.38;;;21.80;95.40;;;;;;4229891;28;20071;-54
2023/09/15 09:05:07;;;;;;;11.88;4.43;;;21.80;95.20;;;;;;4230159;28;20043;-53
2023/09/15 09:07:10;;;;;;;9.48;4.20;;;21.80;95.30;;;;;;4230137;28;20046;-54
2023/09/15 09:09:15;;;;;;;7.40;4.00;;;21.80;95.30;;;;;;4233597;28;20127;-55
2023/09/15 09:11:17;;;;;;;8.70;4.75;;;21.90;95.50;;;;;;4233719;28;20054;-54
2023/09/15 09:13:21;;;;;;;11.73;4.55;;;21.80;95.30;;;;;;4233765;28;20047;-54
2023/09/15 09:15:40;;;;;;;9.65;4.60;;;21.90;95.30;;;;;;4233510;28;20043;-55
2023/09/15 09:17:43;;;;;;;8.20;3.97;;;22.00;95.20;;;;;;4248972;27;20130;-56
2023/09/15 09:19:47;;;;;;;11.30;4.13;;;22.00;95.10;;;;;;4250621;27;20499;-55
2023/09/15 09:21:59;;;;;;;13.10;4.32;;;22.10;95.30;;;;;;4250646;27;20092;-55
2023/09/15 09:24:01;;;;;;;10.88;5.03;;;22.10;95.30;;;;;;4250383;27;20428;-54
2023/09/15 09:26:12;;;;;;;6.75;4.38;;;22.10;95.10;;;;;;4250613;27;20051;-53
2023/09/15 09:28:14;;;;;;;9.82;4.18;;;22.20;95.10;;;;;;4250218;27;20055;-53
2023/09/15 09:30:19;;;;;;;6.05;3.92;;;22.20;94.80;;;;;;4250177;27;20047;-54
2023/09/15 09:32:22;;;;;;;8.43;3.60;;;22.20;94.90;;;;;;4249684;27;20039;-54
2023/09/15 09:34:24;;;;;;;9.10;4.15;;;22.20;95.00;;;;;;4250049;27;20065;-53
2023/09/15 09:36:48;;;;;;;10.98;4.43;;;22.30;95.10;;;;;;4249954;27;20397;-55
2023/09/15 09:38:51;;;;;;;9.75;4.22;;;22.30;94.60;;;;;;4250204;27;20408;-53
2023/09/15 09:40:56;;;;;;;7.63;3.85;;;22.30;94.80;;;;;;4250082;27;20050;-53
2023/09/15 09:42:59;;;;;;;14.40;3.92;;;22.40;94.90;;;;;;4249946;27;20420;-53
2023/09/15 09:45:03;;;;;;;11.88;4.32;;;22.50;95.00;;;;;;4250205;27;20507;-54
2023/09/15 09:47:07;;;;;;;8.43;3.70;;;22.50;94.90;;;;;;4249510;27;20055;-52
2023/09/15 09:49:12;;;;;;;10.82;3.97;;;22.50;94.70;;;;;;4231663;28;20047;-55
2023/09/15 09:51:17;;;;;;;13.40;4.07;;;22.60;94.70;;;;;;4250060;27;20414;-55
2023/09/15 09:53:27;;;;;;;12.82;4.10;;;22.70;94.50;;;;;;4249726;27;20085;-54
2023/09/15 09:55:30;;;;;;;9.23;3.55;;;22.70;94.80;;;;;;4249886;27;20134;-54
2023/09/15 09:57:32;;;;;;;8.40;3.53;;;22.80;94.70;;;;;;4250061;27;20047;-54
2023/09/15 09:59:37;;;;;;;9.05;3.63;;;22.80;94.60;;;;;;4249621;27;20067;-54
2023/09/15 10:01:39;;;;;;;6.93;3.85;;;22.90;94.60;;;;;;4249379;27;20409;-54
2023/09/15 10:03:42;;;;;;;8.10;4.03;;;22.90;94.10;;;;;;4250088;27;20475;-55
2023/09/15 10:05:44;;;;;;;8.10;3.53;;;23.00;94.40;;;;;;4250100;27;20430;-62
2023/09/15 10:07:47;;;;;;;9.70;3.47;;;23.00;94.50;;;;;;4249935;27;20126;-54
2023/09/15 10:09:50;;;;;;;7.13;3.45;;;23.10;94.50;;;;;;4249897;27;20457;-54
2023/09/15 10:11:53;;;;;;;8.35;3.95;;;23.10;94.30;;;;;;4249636;27;20141;-54
2023/09/15 10:13:56;;;;;;;12.40;3.72;;;23.10;94.20;;;;;;4249818;27;20043;-55
2023/09/15 10:15:59;;;;;;;15.15;3.53;;;23.20;94.20;;;;;;4249207;27;20039;-55
2023/09/15 10:18:02;;;;;;;5.57;3.63;;;23.30;94.00;;;;;;4249905;27;20058;-53
2023/09/15 10:20:07;;;;;;;8.10;3.17;;;23.30;94.10;;;;;;4239401;27;20122;-54
2023/09/15 10:22:10;;;;;;;6.18;3.63;;;23.30;93.80;;;;;;4232187;28;20497;-57
2023/09/15 10:24:12;;;;;;;7.38;3.17;;;23.40;93.90;;;;;;4232171;28;20122;-54
2023/09/15 10:26:14;;;;;;;8.77;3.50;;;23.40;93.80;;;;;;4232042;28;20124;-54
2023/09/15 10:28:17;;;;;;;7.85;3.70;;;23.40;93.70;;;;;;4231928;28;20085;-57
2023/09/15 10:30:40;;;;;;;11.13;4.03;;;23.50;93.30;;;;;;4231823;28;20039;-54
2023/09/15 10:32:45;;;;;;;13.77;4.00;;;23.60;93.40;;;;;;4231907;28;20495;-54
2023/09/15 10:34:48;;;;;;;12.20;3.67;;;23.70;93.50;;;;;;4232112;28;20416;-54
2023/09/15 10:36:52;;;;;;;6.35;3.80;;;23.70;93.40;;;;;;4231922;28;20423;-54
2023/09/15 10:38:55;;;;;;;8.05;3.65;;;23.70;93.30;;;;;;4244468;27;20055;-53